| time (UTC) | temp F | wind direction | speed MPH | gust MPH | rain 1hr in | rain 24hr in | rain mn in | humidity % | barometer mb |
| 20260906120725 | 69 | 200 | 2.0 | 3.0 | 0.00 | 0.00 | 0.00 | 99 | 1016.0 |
| 20260906120221 | 69 | 182 | 1.0 | 2.0 | 0.00 | 0.00 | 0.00 | 99 | 1016.0 |
| 20260906115717 | 69 | 186 | 0.0 | 2.0 | 0.00 | 0.00 | 0.00 | 99 | 1015.9 |
| 20260906115212 | 69 | 185 | 0.0 | 1.0 | 0.00 | 0.00 | 0.00 | 99 | 1015.7 |
| 20260906114711 | 69 | 174 | 1.0 | 1.0 | 0.00 | 0.00 | 0.00 | 99 | 1015.6 |
| 20260906114207 | 69 | 187 | 0.0 | 1.0 | 0.00 | 0.00 | 0.00 | 99 | 1015.5 |
| 20260906113702 | 69 | 192 | 2.0 | 2.0 | 0.00 | 0.00 | 0.00 | 99 | 1015.4 |
| 20260906113201 | 70 | 185 | 1.0 | 1.0 | 0.00 | 0.00 | 0.00 | 99 | 1015.3 |
| 20260906112700 | 69 | 184 | 0.0 | 1.0 | 0.00 | 0.00 | 0.00 | 99 | 1015.4 |
| 20260906112158 | 69 | 184 | 0.0 | 1.0 | 0.00 | 0.00 | 0.00 | 99 | 1015.3 |
| 20260906111657 | 69 | 184 | 0.0 | 1.0 | 0.00 | 0.00 | 0.00 | 99 | 1015.1 |
| 20260906111151 | 69 | 184 | 0.0 | 1.0 | 0.00 | 0.00 | 0.00 | 99 | 1015.2 |
| 20260906110646 | 69 | 192 | 0.0 | 1.0 | 0.00 | 0.00 | 0.00 | 99 | 1015.3 |
| 20260906110142 | 69 | 192 | 0.0 | 1.0 | 0.00 | 0.00 | 0.00 | 99 | 1015.1 |
| 20260906105635 | 69 | 193 | 1.0 | 1.0 | 0.00 | 0.00 | 0.00 | 99 | 1015.0 |
| 20260906105132 | 69 | 195 | 0.0 | 0.0 | 0.00 | 0.00 | 0.00 | 99 | 1014.8 |
| 20260906104631 | 69 | 196 | 0.0 | 2.0 | 0.00 | 0.00 | 0.00 | 99 | 1014.6 |
| 20260906104125 | 69 | 169 | 1.0 | 3.0 | 0.00 | 0.00 | 0.00 | 99 | 1014.5 |
| 20260906103623 | 69 | 173 | 1.0 | 3.0 | 0.00 | 0.00 | 0.00 | 99 | 1014.6 |
| 20260906103119 | 69 | 185 | 2.0 | 2.0 | 0.00 | 0.00 | 0.00 | 99 | 1014.8 |
| 20260906102614 | 69 | 199 | 1.0 | 2.0 | 0.00 | 0.00 | 0.00 | 99 | 1014.6 |
| 20260906102108 | 69 | 183 | 0.0 | 1.0 | 0.00 | 0.00 | 0.00 | 99 | 1014.3 |
| 20260906101603 | 69 | 185 | 1.0 | 2.0 | 0.00 | 0.00 | 0.00 | 99 | 1014.5 |
| 20260906101102 | 69 | 207 | 2.0 | 2.0 | 0.00 | 0.00 | 0.00 | 99 | 1014.4 |
| 20260906100558 | 69 | 202 | 0.0 | 1.0 | 0.00 | 0.00 | 0.00 | 99 | 1014.5 |
| 20260906100053 | 69 | 195 | 0.0 | 1.0 | 0.00 | 0.00 | 0.00 | 99 | 1014.3 |
| 20260906095547 | 69 | 195 | 0.0 | 1.0 | 0.00 | 0.00 | 0.00 | 99 | 1014.4 |
| 20260906095042 | 69 | 197 | 0.0 | 1.0 | 0.00 | 0.00 | 0.00 | 99 | 1014.4 |
| 20260906094541 | 69 | 198 | 2.0 | 2.0 | 0.00 | 0.00 | 0.00 | 99 | 1014.3 |
| 20260906094037 | 69 | 195 | 0.0 | 1.0 | 0.00 | 0.00 | 0.00 | 99 | 1014.5 |
| 20260906093534 | 69 | 190 | 1.0 | 1.0 | 0.00 | 0.00 | 0.00 | 99 | 1014.2 |
| 20260906093033 | 69 | 161 | 1.0 | 1.0 | 0.00 | 0.00 | 0.00 | 99 | 1014.4 |
| 20260906092528 | 68 | 158 | 0.0 | 0.0 | 0.00 | 0.00 | 0.00 | 99 | 1014.4 |
| 20260906092024 | 69 | 186 | 0.0 | 1.0 | 0.00 | 0.00 | 0.00 | 99 | 1014.4 |
| 20260906091519 | 68 | 222 | 3.0 | 6.0 | 0.00 | 0.00 | 0.00 | 99 | 1014.5 |
| 20260906091016 | 68 | 154 | 0.0 | 0.0 | 0.00 | 0.00 | 0.00 | 99 | 1014.4 |
| 20260906090516 | 67 | 150 | 0.0 | 0.0 | 0.00 | 0.00 | 0.00 | 99 | 1014.4 |
| 20260906090011 | 67 | 154 | 0.0 | 0.0 | 0.00 | 0.00 | 0.00 | 99 | 1014.6 |
| 20260906085510 | 67 | 154 | 0.0 | 0.0 | 0.00 | 0.00 | 0.00 | 99 | 1014.6 |
| 20260906085009 | 67 | 154 | 0.0 | 0.0 | 0.00 | 0.00 | 0.00 | 99 | 1014.4 |
| 20260906084504 | 67 | 155 | 0.0 | 0.0 | 0.00 | 0.00 | 0.00 | 99 | 1014.4 |
| 20260906084002 | 66 | 155 | 0.0 | 0.0 | 0.00 | 0.00 | 0.00 | 99 | 1014.6 |
| 20260906083459 | 66 | 155 | 0.0 | 0.0 | 0.00 | 0.00 | 0.00 | 99 | 1014.5 |
| 20260906082958 | 66 | 154 | 0.0 | 0.0 | 0.00 | 0.00 | 0.00 | 99 | 1014.4 |
| 20260906082453 | 66 | 148 | 0.0 | 0.0 | 0.00 | 0.00 | 0.00 | 99 | 1014.5 |
| 20260906081949 | 66 | 148 | 0.0 | 0.0 | 0.00 | 0.00 | 0.00 | 99 | 1014.5 |
| 20260906081444 | 66 | 147 | 0.0 | 0.0 | 0.00 | 0.00 | 0.00 | 99 | 1014.4 |
| 20260906080940 | 66 | 148 | 0.0 | 0.0 | 0.00 | 0.00 | 0.00 | 99 | 1014.4 |
| 20260906080437 | 66 | 146 | 0.0 | 0.0 | 0.00 | 0.00 | 0.00 | 99 | 1014.4 |
| 20260906075936 | 66 | 146 | 0.0 | 0.0 | 0.00 | 0.00 | 0.00 | 99 | 1014.3 |
| 20260906075431 | 66 | 146 | 0.0 | 0.0 | 0.00 | 0.00 | 0.00 | 99 | 1014.3 |
| 20260906074927 | 66 | 146 | 0.0 | 0.0 | 0.00 | 0.00 | 0.00 | 99 | 1014.5 |
| 20260906074426 | 66 | 146 | 0.0 | 0.0 | 0.00 | 0.00 | 0.00 | 99 | 1014.4 |
| 20260906073925 | 67 | 146 | 0.0 | 0.0 | 0.00 | 0.00 | 0.00 | 99 | 1014.3 |
| 20260906073420 | 67 | 145 | 0.0 | 0.0 | 0.00 | 0.00 | 0.00 | 99 | 1014.3 |
| 20260906072917 | 66 | 146 | 0.0 | 0.0 | 0.00 | 0.00 | 0.00 | 99 | 1014.2 |
| 20260906072412 | 66 | 146 | 0.0 | 0.0 | 0.00 | 0.00 | 0.00 | 99 | 1014.3 |
| 20260906071908 | 66 | 146 | 0.0 | 0.0 | 0.00 | 0.00 | 0.00 | 99 | 1014.2 |
| 20260906071403 | 66 | 144 | 0.0 | 0.0 | 0.00 | 0.00 | 0.00 | 99 | 1014.3 |
| 20260906070858 | 66 | 162 | 0.0 | 0.0 | 0.00 | 0.00 | 0.00 | 99 | 1014.3 |
| 20260906070355 | 66 | 164 | 0.0 | 0.0 | 0.00 | 0.00 | 0.00 | 99 | 1014.2 |
| 20260906065850 | 66 | 164 | 0.0 | 0.0 | 0.00 | 0.00 | 0.00 | 99 | 1014.2 |
| 20260906065344 | 67 | 164 | 0.0 | 0.0 | 0.00 | 0.00 | 0.00 | 99 | 1014.2 |
| 20260906064840 | 67 | 168 | 0.0 | 0.0 | 0.00 | 0.00 | 0.00 | 99 | 1014.4 |
| 20260906064337 | 66 | 171 | 0.0 | 0.0 | 0.00 | 0.00 | 0.00 | 99 | 1014.4 |
| 20260906063836 | 67 | 171 | 0.0 | 0.0 | 0.00 | 0.00 | 0.00 | 99 | 1014.2 |
| 20260906063332 | 67 | 171 | 0.0 | 0.0 | 0.00 | 0.00 | 0.00 | 99 | 1014.3 |
| 20260906062827 | 67 | 171 | 0.0 | 0.0 | 0.00 | 0.00 | 0.00 | 99 | 1014.2 |
| 20260906062326 | 67 | 170 | 0.0 | 0.0 | 0.00 | 0.00 | 0.00 | 99 | 1014.1 |
| 20260906061821 | 67 | 168 | 0.0 | 0.0 | 0.00 | 0.00 | 0.00 | 99 | 1014.4 |
| 20260906061318 | 67 | 168 | 0.0 | 0.0 | 0.00 | 0.00 | 0.00 | 99 | 1014.5 |
| 20260906060812 | 67 | 168 | 0.0 | 0.0 | 0.00 | 0.00 | 0.00 | 99 | 1014.3 |
| 20260906060310 | 68 | 168 | 0.0 | 0.0 | 0.00 | 0.00 | 0.00 | 99 | 1014.5 |
| 20260906055806 | 68 | 166 | 0.0 | 0.0 | 0.00 | 0.00 | 0.00 | 99 | 1014.5 |
| 20260906055301 | 68 | 166 | 0.0 | 0.0 | 0.00 | 0.00 | 0.00 | 99 | 1014.6 |
| 20260906054756 | 68 | 166 | 0.0 | 0.0 | 0.00 | 0.00 | 0.00 | 99 | 1014.5 |
| 20260906054251 | 68 | 166 | 0.0 | 0.0 | 0.00 | 0.00 | 0.00 | 99 | 1014.4 |
| 20260906053748 | 68 | 166 | 0.0 | 0.0 | 0.00 | 0.00 | 0.00 | 99 | 1014.4 |
| 20260906053243 | 68 | 165 | 0.0 | 0.0 | 0.00 | 0.00 | 0.00 | 99 | 1014.4 |
| 20260906052738 | 68 | 166 | 0.0 | 0.0 | 0.00 | 0.00 | 0.00 | 99 | 1014.6 |
| 20260906052234 | 68 | 166 | 0.0 | 0.0 | 0.00 | 0.00 | 0.00 | 99 | 1014.4 |
| 20260906051731 | 68 | 166 | 0.0 | 0.0 | 0.00 | 0.00 | 0.00 | 99 | 1014.2 |
| 20260906051231 | 68 | 166 | 0.0 | 0.0 | 0.00 | 0.00 | 0.00 | 99 | 1014.0 |
| 20260906050726 | 68 | 166 | 0.0 | 0.0 | 0.00 | 0.00 | 0.00 | 99 | 1014.2 |
| 20260906050221 | 68 | 166 | 0.0 | 0.0 | 0.00 | 0.00 | 0.00 | 99 | 1014.3 |
| 20260906045720 | 68 | 166 | 0.0 | 0.0 | 0.00 | 0.00 | 0.00 | 99 | 1014.0 |
| 20260906045215 | 68 | 166 | 0.0 | 0.0 | 0.00 | 0.00 | 0.00 | 99 | 1014.2 |
| 20260906044711 | 68 | 166 | 0.0 | 0.0 | 0.00 | 0.00 | 0.00 | 99 | 1014.1 |
| 20260906044206 | 68 | 166 | 0.0 | 0.0 | 0.00 | 0.00 | 0.00 | 99 | 1014.1 |
| 20260906043702 | 69 | 167 | 0.0 | 0.0 | 0.00 | 0.00 | 0.00 | 99 | 1014.0 |
| 20260906043157 | 69 | 166 | 0.0 | 0.0 | 0.00 | 0.00 | 0.00 | 99 | 1014.0 |
| 20260906042657 | 69 | 151 | 0.0 | 0.0 | 0.00 | 0.00 | 0.00 | 99 | 1014.0 |
| 20260906042156 | 69 | 151 | 0.0 | 0.0 | 0.00 | 0.00 | 0.00 | 99 | 1014.0 |
| 20260906041652 | 69 | 151 | 0.0 | 0.0 | 0.00 | 0.00 | 0.00 | 99 | 1014.2 |
| 20260906041147 | 69 | 151 | 0.0 | 0.0 | 0.00 | 0.00 | 0.00 | 99 | 1014.2 |
| 20260906040643 | 69 | 151 | 0.0 | 0.0 | 0.00 | 0.00 | 0.00 | 99 | 1014.3 |
| 20260906040138 | 69 | 151 | 0.0 | 0.0 | 0.00 | 0.06 | 0.06 | 99 | 1014.1 |
| 20260906035633 | 69 | 151 | 0.0 | 0.0 | 0.00 | 0.06 | 0.06 | 99 | 1014.2 |
| 20260906035129 | 69 | 151 | 0.0 | 0.0 | 0.00 | 0.06 | 0.06 | 99 | 1014.2 |
| 20260906034623 | 70 | 150 | 0.0 | 0.0 | 0.00 | 0.06 | 0.06 | 99 | 1014.3 |
| 20260906034118 | 70 | 150 | 0.0 | 0.0 | 0.00 | 0.06 | 0.06 | 99 | 1014.2 |
| 20260906033614 | 70 | 150 | 0.0 | 0.0 | 0.00 | 0.06 | 0.06 | 99 | 1014.3 |
| 20260906033109 | 70 | 150 | 0.0 | 0.0 | 0.00 | 0.06 | 0.06 | 99 | 1014.1 |
| 20260906032606 | 70 | 158 | 0.0 | 0.0 | 0.00 | 0.06 | 0.06 | 99 | 1014.4 |
| 20260906032105 | 70 | 194 | 0.0 | 0.0 | 0.00 | 0.06 | 0.06 | 99 | 1014.4 |
| 20260906031601 | 70 | 199 | 0.0 | 1.0 | 0.00 | 0.06 | 0.06 | 99 | 1014.5 |
| 20260906031057 | 69 | 230 | 6.0 | 6.0 | 0.00 | 0.06 | 0.06 | 99 | 1014.5 |
| 20260906030556 | 69 | 215 | 1.0 | 1.0 | 0.00 | 0.06 | 0.06 | 99 | 1014.4 |
| 20260906030055 | 70 | 201 | 0.0 | 0.0 | 0.00 | 0.06 | 0.06 | 99 | 1014.5 |
| 20260906025549 | 70 | 199 | 0.0 | 0.0 | 0.00 | 0.06 | 0.06 | 99 | 1014.4 |
| 20260906025048 | 70 | 167 | 0.0 | 0.0 | 0.05 | 0.06 | 0.06 | 99 | 1014.5 |
| 20260906024543 | 70 | 167 | 0.0 | 0.0 | 0.05 | 0.06 | 0.06 | 99 | 1014.6 |
| 20260906024043 | 70 | 167 | 0.0 | 0.0 | 0.00 | 0.05 | 0.05 | 99 | 1014.5 |
| 20260906023539 | 70 | 167 | 0.0 | 0.0 | 0.00 | 0.05 | 0.05 | 99 | 1014.6 |
| 20260906023034 | 70 | 167 | 0.0 | 0.0 | 0.00 | 0.05 | 0.05 | 99 | 1014.5 |
| 20260906022529 | 70 | 167 | 0.0 | 0.0 | 0.00 | 0.05 | 0.05 | 99 | 1014.5 |
| 20260906022024 | 70 | 167 | 0.0 | 0.0 | 0.00 | 0.05 | 0.05 | 99 | 1014.4 |
| 20260906021520 | 70 | 167 | 0.0 | 0.0 | 0.00 | 0.05 | 0.05 | 99 | 1014.2 |
| 20260906021014 | 71 | 167 | 0.0 | 0.0 | 0.00 | 0.05 | 0.05 | 99 | 1014.4 |
| 20260906020513 | 71 | 167 | 0.0 | 0.0 | 0.00 | 0.05 | 0.05 | 99 | 1014.5 |
| 20260906020013 | 71 | 167 | 0.0 | 0.0 | 0.00 | 0.05 | 0.05 | 99 | 1014.4 |
| 20260906015512 | 71 | 168 | 0.0 | 0.0 | 0.00 | 0.05 | 0.05 | 99 | 1014.3 |
| 20260906015007 | 71 | 167 | 0.0 | 0.0 | 0.00 | 0.05 | 0.05 | 99 | 1014.2 |
| 20260906014502 | 71 | 167 | 0.0 | 0.0 | 0.00 | 0.05 | 0.05 | 99 | 1014.3 |
| 20260906013957 | 71 | 167 | 0.0 | 0.0 | 0.00 | 0.05 | 0.05 | 99 | 1014.1 |
| 20260906013452 | 71 | 167 | 0.0 | 0.0 | 0.00 | 0.05 | 0.05 | 99 | 1014.2 |
| 20260906012942 | 71 | 167 | 0.0 | 0.0 | 0.00 | 0.05 | 0.05 | 99 | 1014.0 |
| 20260906012436 | 71 | 167 | 0.0 | 0.0 | 0.00 | 0.05 | 0.05 | 99 | 1013.7 |
| 20260906011936 | 71 | 167 | 0.0 | 0.0 | 0.00 | 0.05 | 0.05 | 99 | 1013.4 |
| 20260906011432 | 72 | 84 | 0.0 | 1.0 | 0.00 | 0.05 | 0.05 | 99 | 1013.8 |
| 20260906010927 | 72 | 75 | 0.0 | 0.0 | 0.00 | 0.05 | 0.05 | 99 | 1013.7 |
| 20260906010422 | 72 | 75 | 0.0 | 1.0 | 0.00 | 0.05 | 0.05 | 99 | 1013.5 |
| 20260906005919 | 72 | 75 | 0.0 | 0.0 | 0.00 | 0.05 | 0.05 | 99 | 1013.6 |
| 20260906005418 | 72 | 74 | 0.0 | 0.0 | 0.00 | 0.05 | 0.05 | 99 | 1013.6 |
| 20260906004916 | 72 | 74 | 0.0 | 0.0 | 0.00 | 0.05 | 0.05 | 99 | 1013.6 |
| 20260906004411 | 73 | 74 | 0.0 | 0.0 | 0.00 | 0.05 | 0.05 | 99 | 1013.3 |
| 20260906003907 | 73 | 75 | 0.0 | 0.0 | 0.00 | 0.05 | 0.05 | 99 | 1013.4 |
| 20260906003401 | 73 | 74 | 0.0 | 0.0 | 0.00 | 0.05 | 0.05 | 99 | 1013.3 |
| 20260906002857 | 73 | 75 | 0.0 | 0.0 | 0.00 | 0.05 | 0.05 | 99 | 1013.3 |
| 20260906002355 | 73 | 74 | 0.0 | 0.0 | 0.00 | 0.05 | 0.05 | 99 | 1013.3 |
| 20260906001852 | 73 | 74 | 0.0 | 0.0 | 0.00 | 0.05 | 0.05 | 99 | 1013.3 |
| 20260906001347 | 74 | 74 | 0.0 | 0.0 | 0.00 | 0.05 | 0.05 | 99 | 1013.3 |
| 20260906000842 | 74 | 74 | 0.0 | 0.0 | 0.00 | 0.05 | 0.05 | 99 | 1013.5 |
| 20260906000343 | 74 | 74 | 1.0 | 1.0 | 0.00 | 0.05 | 0.05 | 99 | 1013.5 |
| 20260905235842 | 74 | 75 | 1.0 | 1.0 | 0.00 | 0.05 | 0.05 | 99 | 1013.4 |
| 20260905235337 | 74 | 75 | 0.0 | 0.0 | 0.00 | 0.05 | 0.05 | 99 | 1013.6 |
| 20260905234832 | 75 | 75 | 0.0 | 0.0 | 0.00 | 0.05 | 0.05 | 98 | 1013.5 |
| 20260905234327 | 76 | 75 | 0.0 | 1.0 | 0.00 | 0.05 | 0.05 | 98 | 1013.7 |
| 20260905233822 | 76 | 75 | 0.0 | 1.0 | 0.00 | 0.05 | 0.05 | 97 | 1013.6 |
| 20260905233317 | 77 | 75 | 0.0 | 1.0 | 0.00 | 0.05 | 0.05 | 96 | 1013.6 |
| 20260905232816 | 77 | 75 | 0.0 | 0.0 | 0.00 | 0.05 | 0.05 | 95 | 1013.6 |
| 20260905232313 | 77 | 75 | 0.0 | 0.0 | 0.00 | 0.05 | 0.05 | 94 | 1013.5 |
| 20260905231808 | 79 | 75 | 0.0 | 0.0 | 0.00 | 0.05 | 0.05 | 92 | 1013.5 |
| 20260905231303 | 79 | 75 | 0.0 | 0.0 | 0.00 | 0.05 | 0.05 | 92 | 1013.5 |
| 20260905230759 | 80 | 75 | 0.0 | 1.0 | 0.00 | 0.05 | 0.05 | 91 | 1013.7 |
| 20260905230257 | 80 | 22 | 1.0 | 1.0 | 0.00 | 0.05 | 0.05 | 89 | 1013.7 |
| 20260905225757 | 80 | 53 | 1.0 | 2.0 | 0.00 | 0.05 | 0.05 | 88 | 1013.4 |
| 20260905225252 | 81 | 85 | 1.0 | 1.0 | 0.00 | 0.05 | 0.05 | 88 | 1013.6 |
| 20260905224752 | 81 | 85 | 0.0 | 0.0 | 0.00 | 0.05 | 0.05 | 87 | 1013.5 |
| 20260905224248 | 82 | 85 | 0.0 | 1.0 | 0.00 | 0.05 | 0.05 | 84 | 1013.5 |
| 20260905223743 | 83 | 85 | 0.0 | 0.0 | 0.00 | 0.05 | 0.05 | 76 | 1013.5 |
| 20260905223240 | 83 | 84 | 0.0 | 1.0 | 0.00 | 0.05 | 0.05 | 77 | 1013.5 |
| 20260905222735 | 84 | 39 | 1.0 | 2.0 | 0.00 | 0.05 | 0.05 | 76 | 1013.8 |
| 20260905222234 | 85 | 34 | 2.0 | 2.0 | 0.00 | 0.05 | 0.05 | 75 | 1013.4 |
| 20260905221730 | 83 | 37 | 0.0 | 0.0 | 0.00 | 0.05 | 0.05 | 78 | 1013.6 |
| 20260905221227 | 83 | 66 | 0.0 | 1.0 | 0.00 | 0.05 | 0.05 | 77 | 1013.7 |
| 20260905220722 | 84 | 148 | 0.0 | 1.0 | 0.00 | 0.05 | 0.05 | 73 | 1013.7 |
| 20260905220218 | 83 | 103 | 1.0 | 2.0 | 0.00 | 0.05 | 0.05 | 77 | 1013.7 |
| 20260905215717 | 84 | 111 | 1.0 | 2.0 | 0.00 | 0.05 | 0.05 | 74 | 1013.7 |
| 20260905215213 | 86 | 25 | 3.0 | 4.0 | 0.00 | 0.05 | 0.05 | 73 | 1013.8 |
| 20260905214709 | 85 | 111 | 1.0 | 2.0 | 0.00 | 0.05 | 0.05 | 71 | 1013.6 |
| 20260905214204 | 85 | 84 | 3.0 | 4.0 | 0.00 | 0.05 | 0.05 | 70 | 1013.4 |
| 20260905213659 | 84 | 157 | 0.0 | 3.0 | 0.00 | 0.05 | 0.05 | 74 | 1013.5 |
| 20260905213155 | 85 | 153 | 0.0 | 2.0 | 0.00 | 0.05 | 0.05 | 70 | 1013.4 |
| 20260905212650 | 85 | 160 | 2.0 | 3.0 | 0.00 | 0.05 | 0.05 | 69 | 1013.4 |
| 20260905212149 | 86 | 46 | 3.0 | 4.0 | 0.00 | 0.05 | 0.05 | 73 | 1013.3 |
| 20260905211644 | 85 | 56 | 2.0 | 6.0 | 0.00 | 0.05 | 0.05 | 69 | 1013.2 |
| 20260905211140 | 85 | 98 | 1.0 | 4.0 | 0.00 | 0.05 | 0.05 | 71 | 1013.3 |
| 20260905210636 | 85 | 111 | 2.0 | 3.0 | 0.00 | 0.05 | 0.05 | 71 | 1013.2 |
| 20260905210131 | 84 | 7 | 1.0 | 2.0 | 0.00 | 0.05 | 0.05 | 69 | 1013.2 |
| 20260905205630 | 82 | 172 | 0.0 | 2.0 | 0.00 | 0.05 | 0.05 | 75 | 1013.2 |
| 20260905205130 | 82 | 212 | 2.0 | 3.0 | 0.00 | 0.05 | 0.05 | 74 | 1013.3 |
| 20260905204624 | 83 | 149 | 2.0 | 3.0 | 0.00 | 0.05 | 0.05 | 73 | 1013.5 |
| 20260905204119 | 85 | 56 | 0.0 | 1.0 | 0.00 | 0.05 | 0.05 | 71 | 1013.4 |
| 20260905203613 | 85 | 33 | 2.0 | 3.0 | 0.00 | 0.05 | 0.05 | 69 | 1013.4 |
| 20260905203109 | 84 | 145 | 0.0 | 2.0 | 0.00 | 0.05 | 0.05 | 72 | 1013.3 |
| 20260905202604 | 84 | 34 | 0.0 | 3.0 | 0.00 | 0.05 | 0.05 | 72 | 1013.3 |
| 20260905202059 | 84 | 61 | 4.0 | 4.0 | 0.00 | 0.05 | 0.05 | 71 | 1013.4 |
| 20260905201554 | 85 | 33 | 2.0 | 3.0 | 0.00 | 0.05 | 0.05 | 71 | 1013.6 |
| 20260905201054 | 84 | 53 | 1.0 | 3.0 | 0.00 | 0.05 | 0.05 | 74 | 1013.8 |
| 20260905200550 | 85 | 98 | 2.0 | 3.0 | 0.00 | 0.05 | 0.05 | 71 | 1013.7 |
| 20260905200050 | 85 | 62 | 3.0 | 3.0 | 0.00 | 0.05 | 0.05 | 76 | 1013.9 |
| 20260905195543 | 83 | 52 | 1.0 | 2.0 | 0.00 | 0.05 | 0.05 | 72 | 1013.8 |
| 20260905195039 | 83 | 53 | 2.0 | 4.0 | 0.00 | 0.05 | 0.05 | 73 | 1014.0 |
| 20260905194539 | 83 | 178 | 4.0 | 4.0 | 0.00 | 0.05 | 0.05 | 71 | 1013.9 |
| 20260905194038 | 84 | 77 | 4.0 | 6.0 | 0.00 | 0.05 | 0.05 | 70 | 1013.9 |
| 20260905193533 | 83 | 145 | 0.0 | 3.0 | 0.00 | 0.05 | 0.05 | 75 | 1013.9 |
| 20260905193028 | 82 | 267 | 2.0 | 3.0 | 0.00 | 0.05 | 0.05 | 74 | 1013.9 |
| 20260905192523 | 82 | 210 | 1.0 | 3.0 | 0.00 | 0.05 | 0.05 | 76 | 1014.0 |
| 20260905192020 | 82 | 170 | 2.0 | 2.0 | 0.00 | 0.05 | 0.05 | 78 | 1014.4 |
| 20260905191518 | 82 | 230 | 1.0 | 2.0 | 0.00 | 0.05 | 0.05 | 73 | 1014.3 |
| 20260905191018 | 82 | 187 | 1.0 | 2.0 | 0.00 | 0.05 | 0.05 | 74 | 1014.2 |
| 20260905190516 | 82 | 49 | 2.0 | 6.0 | 0.00 | 0.05 | 0.05 | 76 | 1014.6 |
| 20260905190016 | 83 | 67 | 2.0 | 7.0 | 0.00 | 0.05 | 0.05 | 78 | 1014.6 |
| 20260905185510 | 83 | 243 | 0.0 | 7.0 | 0.00 | 0.05 | 0.05 | 78 | 1014.5 |
| 20260905185009 | 83 | 263 | 1.0 | 6.0 | 0.00 | 0.05 | 0.05 | 74 | 1014.8 |
| 20260905184504 | 83 | 65 | 7.0 | 10.0 | 0.00 | 0.05 | 0.05 | 78 | 1014.8 |
| 20260905184003 | 83 | 58 | 1.0 | 3.0 | 0.07 | 0.05 | 0.05 | 79 | 1014.8 |
| 20260905183502 | 82 | 31 | 4.0 | 4.0 | 0.07 | 0.05 | 0.05 | 76 | 1015.0 |
| 20260905182957 | 83 | 73 | 4.0 | 6.0 | 0.00 | 0.04 | 0.04 | 74 | 1014.8 |
| 20260905182457 | 83 | 297 | 1.0 | 2.0 | 0.00 | 0.04 | 0.04 | 76 | 1015.0 |
| 20260905181952 | 82 | 225 | 1.0 | 4.0 | 0.00 | 0.04 | 0.04 | 81 | 1015.1 |
| 20260905181447 | 82 | 257 | 1.0 | 3.0 | 0.00 | 0.04 | 0.04 | 80 | 1015.1 |
| 20260905180946 | 80 | 36 | 2.0 | 2.0 | 0.00 | 0.04 | 0.04 | 78 | 1015.2 |
| 20260905180441 | 80 | 45 | 4.0 | 7.0 | 0.00 | 0.04 | 0.04 | 80 | 1015.3 |
| 20260905175936 | 80 | 63 | 2.0 | 2.0 | 0.00 | 0.04 | 0.04 | 79 | 1015.2 |
| 20260905175436 | 80 | 272 | 2.0 | 3.0 | 0.00 | 0.04 | 0.04 | 79 | 1015.3 |
| 20260905174931 | 80 | 17 | 1.0 | 6.0 | 0.00 | 0.04 | 0.04 | 80 | 1015.2 |
| 20260905174426 | 80 | 41 | 4.0 | 6.0 | 0.00 | 0.04 | 0.04 | 81 | 1015.3 |
| 20260905173922 | 79 | 41 | 6.0 | 8.0 | 0.00 | 0.04 | 0.04 | 83 | 1015.3 |
| 20260905173419 | 79 | 53 | 5.0 | 8.0 | 0.00 | 0.04 | 0.04 | 83 | 1015.5 |
| 20260905172918 | 79 | 43 | 3.0 | 4.0 | 0.00 | 0.04 | 0.04 | 82 | 1015.3 |
| 20260905172416 | 79 | 67 | 3.0 | 4.0 | 0.00 | 0.04 | 0.04 | 82 | 1015.5 |
| 20260905171912 | 80 | 40 | 7.0 | 10.0 | 0.00 | 0.04 | 0.04 | 82 | 1015.5 |
| 20260905171409 | 80 | 56 | 3.0 | 6.0 | 0.00 | 0.04 | 0.04 | 80 | 1015.3 |
| 20260905170905 | 80 | 64 | 0.0 | 1.0 | 0.00 | 0.04 | 0.04 | 82 | 1015.3 |
| 20260905170401 | 80 | 45 | 5.0 | 6.0 | 0.00 | 0.04 | 0.04 | 81 | 1015.4 |
| 20260905165900 | 78 | 228 | 1.0 | 7.0 | 0.00 | 0.04 | 0.04 | 82 | 1015.5 |
| 20260905165356 | 78 | 273 | 2.0 | 8.0 | 0.00 | 0.04 | 0.04 | 84 | 1015.6 |
| 20260905164856 | 78 | 325 | 3.0 | 6.0 | 0.00 | 0.04 | 0.04 | 84 | 1015.7 |
| 20260905164351 | 79 | 250 | 4.0 | 6.0 | 0.00 | 0.04 | 0.04 | 85 | 1015.9 |
| 20260905163846 | 79 | 289 | 2.0 | 6.0 | 0.00 | 0.04 | 0.04 | 88 | 1015.9 |
| 20260905163342 | 78 | 30 | 4.0 | 7.0 | 0.00 | 0.04 | 0.04 | 88 | 1016.1 |
| 20260905162838 | 78 | 42 | 2.0 | 6.0 | 0.00 | 0.04 | 0.04 | 89 | 1016.6 |
| 20260905162338 | 77 | 25 | 2.0 | 3.0 | 0.00 | 0.04 | 0.04 | 89 | 1016.6 |
| 20260905161832 | 78 | 22 | 3.0 | 4.0 | 0.00 | 0.04 | 0.04 | 88 | 1016.6 |
| 20260905161332 | 78 | 278 | 3.0 | 6.0 | 0.00 | 0.04 | 0.04 | 88 | 1016.6 |
| 20260905160831 | 77 | 37 | 1.0 | 4.0 | 0.00 | 0.04 | 0.04 | 92 | 1016.6 |
| 20260905160330 | 75 | 259 | 2.0 | 2.0 | 0.00 | 0.04 | 0.04 | 94 | 1016.7 |
| 20260905155825 | 74 | 270 | 1.0 | 2.0 | 0.00 | 0.04 | 0.04 | 96 | 1016.5 |
| 20260905155324 | 73 | 214 | 0.0 | 2.0 | 0.00 | 0.04 | 0.04 | 99 | 1016.6 |
| 20260905154819 | 73 | 201 | 2.0 | 4.0 | 0.00 | 0.04 | 0.04 | 99 | 1016.6 |
| 20260905154314 | 73 | 3 | 0.0 | 1.0 | 0.00 | 0.04 | 0.04 | 99 | 1016.5 |
| 20260905153809 | 73 | 109 | 1.0 | 1.0 | 0.00 | 0.04 | 0.04 | 99 | 1016.5 |
| 20260905153307 | 72 | 71 | 1.0 | 1.0 | 0.00 | 0.04 | 0.04 | 99 | 1016.5 |
| 20260905152806 | 72 | 162 | 0.0 | 1.0 | 0.00 | 0.04 | 0.04 | 99 | 1016.4 |
| 20260905152306 | 73 | 109 | 0.0 | 1.0 | 0.00 | 0.04 | 0.04 | 99 | 1016.3 |
| 20260905151800 | 72 | 222 | 1.0 | 3.0 | 0.00 | 0.04 | 0.04 | 99 | 1016.3 |
| 20260905151256 | 71 | 146 | 3.0 | 3.0 | 0.00 | 0.04 | 0.04 | 99 | 1016.1 |
| 20260905150756 | 72 | 235 | 2.0 | 3.0 | 0.00 | 0.04 | 0.04 | 99 | 1016.2 |
| 20260905150255 | 72 | 116 | 0.0 | 1.0 | 0.00 | 0.04 | 0.04 | 99 | 1015.7 |
| 20260905145753 | 72 | 218 | 0.0 | 1.0 | 0.00 | 0.04 | 0.04 | 99 | 1015.7 |
| 20260905145247 | 72 | 216 | 0.0 | 1.0 | 0.00 | 0.04 | 0.04 | 99 | 1015.5 |
| 20260905144746 | 71 | 271 | 5.0 | 7.0 | 0.00 | 0.04 | 0.04 | 99 | 1015.1 |
| 20260905144242 | 71 | 91 | 4.0 | 6.0 | 0.00 | 0.04 | 0.04 | 99 | 1014.9 |
| 20260905143741 | 71 | 57 | 4.0 | 4.0 | 0.00 | 0.04 | 0.04 | 99 | 1015.0 |
| 20260905143241 | 71 | 212 | 0.0 | 1.0 | 0.07 | 0.04 | 0.04 | 99 | 1015.1 |
| 20260905142739 | 70 | 235 | 1.0 | 2.0 | 0.07 | 0.04 | 0.04 | 99 | 1014.6 |
| 20260905142234 | 71 | 279 | 2.0 | 3.0 | 0.00 | 0.03 | 0.03 | 99 | 1014.4 |
| 20260905141730 | 71 | 283 | 1.0 | 1.0 | 0.00 | 0.03 | 0.03 | 99 | 1014.9 |
| 20260905141225 | 70 | 1 | 0.0 | 1.0 | 0.00 | 0.03 | 0.03 | 99 | 1015.4 |
| 20260905140720 | 70 | 61 | 0.0 | 2.0 | 0.00 | 0.03 | 0.03 | 99 | 1015.5 |
| 20260905140214 | 70 | 59 | 1.0 | 3.0 | 0.00 | 0.03 | 0.03 | 99 | 1015.4 |
| 20260905135709 | 70 | 20 | 1.0 | 2.0 | 0.00 | 0.03 | 0.03 | 99 | 1015.7 |
| 20260905135205 | 70 | 25 | 2.0 | 3.0 | 0.00 | 0.03 | 0.03 | 99 | 1015.7 |
| 20260905134659 | 70 | 301 | 1.0 | 1.0 | 0.00 | 0.03 | 0.03 | 99 | 1015.7 |
| 20260905134158 | 70 | 39 | 0.0 | 3.0 | 0.00 | 0.03 | 0.03 | 99 | 1015.9 |
| 20260905133653 | 70 | 8 | 0.0 | 3.0 | 0.00 | 0.03 | 0.03 | 99 | 1015.6 |
| 20260905133148 | 70 | 12 | 1.0 | 2.0 | 0.00 | 0.03 | 0.03 | 99 | 1016.2 |
| 20260905132647 | 0 | 0.0 | 0.0 | 0.00 | 0.03 | 0.03 | 1016.2 | ||
| 20260905132143 | 0 | 0.0 | 0.0 | 0.00 | 0.03 | 0.03 | 1016.5 | ||
| 20260905131637 | 0 | 0.0 | 0.0 | 0.00 | 0.03 | 0.03 | 1016.5 | ||
| 20260905131132 | 69 | 250 | 0.0 | 0.0 | 0.00 | 0.03 | 0.03 | 99 | 1016.5 |
| 20260905130627 | 69 | 250 | 0.0 | 0.0 | 0.00 | 0.03 | 0.03 | 99 | 1016.3 |
| 20260905130126 | 0 | 0.0 | 0.0 | 0.00 | 0.03 | 0.03 | 1016.2 | ||
| 20260905125620 | 0 | 0.0 | 0.0 | 0.00 | 0.03 | 0.03 | 1016.4 | ||
| 20260905125116 | 69 | 21 | 1.0 | 1.0 | 0.00 | 0.03 | 0.03 | 99 | 1016.4 |
| 20260905124613 | 69 | 21 | 1.0 | 1.0 | 0.00 | 0.03 | 0.03 | 99 | 1016.4 |
| 20260905124108 | 69 | 24 | 1.0 | 1.0 | 0.00 | 0.03 | 0.03 | 99 | 1016.3 |
| 20260905123603 | 69 | 19 | 1.0 | 2.0 | 0.00 | 0.03 | 0.03 | 99 | 1016.4 |
| 20260905123100 | 69 | 207 | 0.0 | 1.0 | 0.00 | 0.03 | 0.03 | 99 | 1016.4 |
| 20260905122555 | 69 | 220 | 3.0 | 3.0 | 0.00 | 0.03 | 0.03 | 99 | 1016.3 |
| 20260905122054 | 0 | 0.0 | 0.0 | 0.00 | 0.03 | 0.03 | 1016.2 | ||
| 20260905121549 | 0 | 0.0 | 0.0 | 0.00 | 0.03 | 0.03 | 1016.2 | ||
| 20260905121044 | 0 | 0.0 | 0.0 | 0.00 | 0.03 | 0.03 | 1016.5 |